Arcos, Brazil
Current Conditions -  °F | °C
As of 1:00 AM on Wednesday 22 Oct 2014 (Local Time) from SBBH Reporting Station
Broken Clouds Broken Clouds  
Wind Chill: 68°   Ceiling: 8000
Heat Index: 68°   Visibility: 6mi
Dew Point: 61°   Wind: 8mph
Humidity: 78%   Direction: 100°E
Pressure: 30.09"   Gusts: NA
Location:  20.28°S, 45.54°W
Report Text: SBBH 220300Z 10007KT 9999 SCT017 BKN080 20/16 Q1019
Loading
Personal Weather Stations






























Interactive Weather Map
Tropical Storm Tracking
New forecast layout! Learn more

10-Day Weather Forecast

Advertisements
Track Severe Weather on mobile